Kezdőlap
METAR-TAF:

METAR-TAF

Repülőterek :

Bagdad, Irak

földrajzi szélesség: 33-15-45N, földrajzi hosszúság: 44-14-04E, magasság: 35 m

Jelenlegi meteorológiai megfigyelések

A jelentés 16 perccel ezelõtt készült, 16:00 UTC
Nyugati szél 8 kt
Hőmérséklet 41°C
Páratartalom 15%
Légköri nyomás 996 hPa
Látótávolság 10 km, vagy több
felhőtlen 1500 m magasságban, és nincs gomolyfelhõ

METAR: ORBI 181600Z 27008KT CAVOK 41/09 Q0996 NOSIG

Idő: 19:16 (16:16 UTC)

Előrejelzés

A jelentés 4 órával és 16 perccel ezelõtt készült, 12:00 UTC
Az előrejelzés 18-én 12 óra UTC és 19-én 12 óra UTC között érvényes
Nyugat-északnyugati szél 14 kt
Látótávolság: 8000 m

TAF: ORBI 181200Z 1812/1912 30014KT 8000 NSC

Meteorológiai megfigyelések és előrejelzések több, mint 4000 repülőtéren (METAR és TAF jelentéseket).

A térképen piros és sárga pontok jelzik az elérhető meteorológiai állomásokat.

Mozgassa az egeret a pont fölött, hogy megjelenjen az állomás neve.

Azután kattintson az időjárási megfigyelések és előrejelzések megtekintéséhez.

A térkép megváltoztatása: kattintson a fekete keresztel jelölt zöld gombra ráközelítéshez, a vonallal jelölt zöld gombra távolításhoz, vagy a zöld nyilakra a szomszédos térképek eléréséhez.


METAR-TAF: